Time;durP1;ratioP1;P1;durP2;ratioP2;P2;SDS_P1;SDS_P2;PMS_P1;PMS_P2;Temp;Humidity;BMP_temperature;BMP_pressure;BME280_temperature;BME280_humidity;BME280_pressure;Samples;Min_cycle;Max_cycle;Signal;HPM_P1;HPM_P2
2020/12/23 00:01:57;;;;;;;37.30;13.30;;;;;;;;;;4893146;28;20510;-67
2020/12/23 00:04:22;;;;;;;95.72;13.50;;;;;;;;;;4890135;28;20156;-67
2020/12/23 00:06:50;;;;;;;22.25;10.43;;;;;;;;;;4892310;28;20191;-67
2020/12/23 00:09:16;;;;;;;25.67;10.98;;;;;;;;;;4892819;28;20261;-67
2020/12/23 00:11:41;;;;;;;25.02;10.60;;;;;;;;;;4892769;28;20236;-67
2020/12/23 00:14:06;;;;;;;27.88;10.20;;;;;;;;;;4892808;28;20201;-67
2020/12/23 00:16:33;;;;;;;20.90;10.45;;;;;;;;;;4877368;28;20151;-67
2020/12/23 00:18:59;;;;;;;25.63;10.43;;;;;;;;;;4873913;28;20274;-67
2020/12/23 00:21:24;;;;;;;22.83;10.63;;;;;;;;;;4880887;28;20283;-67
2020/12/23 00:23:50;;;;;;;27.58;11.18;;;;;;;;;;4872919;28;20622;-66
2020/12/23 00:26:16;;;;;;;30.17;11.02;;;;;;;;;;4873809;28;20207;-67
2020/12/23 00:28:42;;;;;;;32.45;10.73;;;;;;;;;;4874574;28;20237;-67
2020/12/23 00:31:08;;;;;;;33.55;12.23;;;;;;;;;;4873585;28;20229;-68
2020/12/23 00:33:34;;;;;;;29.38;11.20;;;;;;;;;;4874954;28;20538;-66
2020/12/23 00:36:00;;;;;;;23.92;11.23;;;;;;;;;;4877153;28;20265;-66
2020/12/23 00:38:25;;;;;;;34.47;11.02;;;;;;;;;;4873003;28;20273;-67
2020/12/23 00:40:51;;;;;;;60.55;11.65;;;;;;;;;;4908030;28;20148;-67
2020/12/23 00:43:16;;;;;;;74.60;10.80;;;;;;;;;;4880173;28;20191;-66
2020/12/23 00:45:42;;;;;;;34.75;10.77;;;;;;;;;;4880791;28;20160;-67
2020/12/23 00:48:07;;;;;;;41.88;12.27;;;;;;;;;;4904938;28;20593;-66
2020/12/23 00:50:32;;;;;;;26.75;13.10;;;;;;;;;;4873267;28;20171;-66
2020/12/23 00:52:58;;;;;;;36.53;12.05;;;;;;;;;;4881076;28;20264;-67
2020/12/23 00:55:23;;;;;;;28.25;10.57;;;;;;;;;;4874682;28;20273;-67
2020/12/23 00:57:49;;;;;;;31.67;10.93;;;;;;;;;;4873817;28;20282;-67
2020/12/23 01:00:14;;;;;;;30.02;11.65;;;;;;;;;;4873959;28;20155;-66
2020/12/23 01:02:41;;;;;;;27.52;10.55;;;;;;;;;;4881006;28;20340;-66
2020/12/23 01:05:06;;;;;;;33.35;11.35;;;;;;;;;;4873818;28;20216;-66
2020/12/23 01:07:32;;;;;;;49.30;14.27;;;;;;;;;;4877717;28;20179;-66
2020/12/23 01:09:58;;;;;;;36.20;12.65;;;;;;;;;;4875959;28;20183;-66
2020/12/23 01:12:23;;;;;;;43.55;12.63;;;;;;;;;;4876465;28;20164;-67
2020/12/23 01:14:49;;;;;;;46.10;12.98;;;;;;;;;;4878300;28;20500;-66
2020/12/23 01:17:16;;;;;;;36.85;11.38;;;;;;;;;;4875603;28;20597;-67
2020/12/23 01:19:41;;;;;;;35.80;13.75;;;;;;;;;;4877972;28;20661;-67
2020/12/23 01:22:10;;;;;;;36.80;14.20;;;;;;;;;;4896889;28;20158;-67
2020/12/23 01:24:35;;;;;;;50.08;17.92;;;;;;;;;;4909820;28;20592;-67
2020/12/23 01:27:01;;;;;;;53.58;19.50;;;;;;;;;;4883206;28;20270;-67
2020/12/23 01:29:30;;;;;;;50.97;18.55;;;;;;;;;;4876380;28;20210;-67
2020/12/23 01:31:55;;;;;;;52.33;20.30;;;;;;;;;;4875909;28;20278;-67
2020/12/23 01:34:21;;;;;;;53.92;20.05;;;;;;;;;;4883311;28;20515;-67
2020/12/23 01:36:50;;;;;;;53.83;22.77;;;;;;;;;;4878866;28;20207;-67
2020/12/23 01:39:16;;;;;;;58.45;22.08;;;;;;;;;;4897005;28;20283;-67
2020/12/23 01:41:41;;;;;;;42.85;19.83;;;;;;;;;;4876245;28;20155;-67
2020/12/23 01:44:07;;;;;;;54.38;21.20;;;;;;;;;;4876155;28;20175;-67
2020/12/23 01:46:34;;;;;;;54.35;20.23;;;;;;;;;;4908291;28;20321;-67
2020/12/23 01:49:01;;;;;;;49.38;18.33;;;;;;;;;;4876235;28;20369;-66
2020/12/23 01:51:27;;;;;;;44.10;17.60;;;;;;;;;;4879694;28;20497;-67
2020/12/23 01:53:54;;;;;;;41.35;14.93;;;;;;;;;;4876021;28;20206;-67
2020/12/23 01:56:20;;;;;;;32.25;13.32;;;;;;;;;;4890590;28;20158;-66
2020/12/23 01:58:46;;;;;;;62.42;13.45;;;;;;;;;;4867671;28;20191;-66
2020/12/23 02:01:16;;;;;;;53.83;14.73;;;;;;;;;;4875476;28;20161;-67
2020/12/23 02:03:42;;;;;;;36.63;13.18;;;;;;;;;;4876165;28;20301;-66
2020/12/23 02:06:07;;;;;;;43.88;13.50;;;;;;;;;;4876505;28;20365;-67
2020/12/23 02:08:36;;;;;;;53.70;12.93;;;;;;;;;;4875728;28;20329;-67
2020/12/23 02:11:01;;;;;;;31.77;12.13;;;;;;;;;;4877670;28;20197;-67
2020/12/23 02:13:37;;;;;;;41.33;13.73;;;;;;;;;;4874956;28;20309;-66
2020/12/23 02:16:04;;;;;;;39.60;14.32;;;;;;;;;;4875480;28;20327;-67
2020/12/23 02:18:30;;;;;;;37.50;12.85;;;;;;;;;;4876092;28;20221;-66
2020/12/23 02:20:55;;;;;;;34.63;11.80;;;;;;;;;;4882470;28;20372;-67
2020/12/23 02:23:21;;;;;;;33.83;11.70;;;;;;;;;;4894634;28;20153;-71
2020/12/23 02:25:47;;;;;;;37.28;10.90;;;;;;;;;;4874133;28;20205;-67
2020/12/23 02:28:12;;;;;;;28.92;10.45;;;;;;;;;;4876504;28;20190;-67
2020/12/23 02:30:37;;;;;;;36.00;10.48;;;;;;;;;;4882033;28;20204;-66
2020/12/23 02:33:03;;;;;;;30.38;10.85;;;;;;;;;;4874784;28;20582;-67
2020/12/23 02:35:29;;;;;;;45.95;9.80;;;;;;;;;;4875648;28;20203;-67
2020/12/23 02:37:54;;;;;;;60.60;10.88;;;;;;;;;;4877619;28;20191;-67
2020/12/23 02:40:19;;;;;;;129.15;12.57;;;;;;;;;;4876699;28;20504;-66
2020/12/23 02:42:45;;;;;;;39.13;10.98;;;;;;;;;;4890195;28;20242;-66
2020/12/23 02:45:10;;;;;;;30.88;10.02;;;;;;;;;;4882829;28;20171;-66
2020/12/23 02:47:36;;;;;;;32.85;10.23;;;;;;;;;;4874691;28;20495;-66
2020/12/23 02:50:01;;;;;;;23.08;9.85;;;;;;;;;;4874827;28;20600;-67
2020/12/23 02:52:27;;;;;;;33.63;9.88;;;;;;;;;;4906227;28;20558;-68
2020/12/23 02:54:52;;;;;;;27.80;8.98;;;;;;;;;;4874832;28;20277;-67
2020/12/23 02:57:17;;;;;;;31.88;10.32;;;;;;;;;;4874967;28;20202;-67
2020/12/23 02:59:43;;;;;;;26.92;11.20;;;;;;;;;;4908349;28;20254;-67
2020/12/23 03:02:08;;;;;;;28.08;9.60;;;;;;;;;;4876020;28;20169;-66
2020/12/23 03:04:35;;;;;;;36.28;10.23;;;;;;;;;;4874702;28;20583;-67
2020/12/23 03:07:00;;;;;;;29.90;9.70;;;;;;;;;;4874129;28;20210;-66
2020/12/23 03:09:25;;;;;;;38.25;10.27;;;;;;;;;;4874343;28;20512;-66
2020/12/23 03:11:51;;;;;;;40.60;10.07;;;;;;;;;;4876143;28;20271;-66
2020/12/23 03:14:17;;;;;;;37.90;10.18;;;;;;;;;;4874424;28;20227;-66
2020/12/23 03:16:42;;;;;;;38.22;10.48;;;;;;;;;;4882248;28;20332;-67
2020/12/23 03:19:08;;;;;;;38.20;9.05;;;;;;;;;;4874332;28;20581;-67
2020/12/23 03:21:33;;;;;;;35.13;10.38;;;;;;;;;;4874036;28;20195;-67
2020/12/23 03:23:58;;;;;;;27.70;8.85;;;;;;;;;;4884344;28;20465;-67
2020/12/23 03:26:24;;;;;;;28.15;9.60;;;;;;;;;;4875903;28;20185;-67
2020/12/23 03:28:50;;;;;;;98.38;10.75;;;;;;;;;;4901010;28;20165;-67
2020/12/23 03:31:16;;;;;;;32.05;10.55;;;;;;;;;;4874835;28;20343;-66
2020/12/23 03:33:41;;;;;;;44.53;9.77;;;;;;;;;;4874076;28;20218;-67
2020/12/23 03:36:07;;;;;;;36.08;10.38;;;;;;;;;;4882449;28;20144;-67
2020/12/23 03:38:33;;;;;;;37.70;9.73;;;;;;;;;;4873946;28;20198;-67
2020/12/23 03:40:59;;;;;;;60.50;10.38;;;;;;;;;;4879152;28;20637;-66
2020/12/23 03:43:24;;;;;;;245.55;13.10;;;;;;;;;;4884230;28;20206;-66
2020/12/23 03:45:50;;;;;;;37.42;10.25;;;;;;;;;;4874161;28;20156;-66
2020/12/23 03:48:16;;;;;;;104.28;9.82;;;;;;;;;;4874369;28;20230;-66
2020/12/23 03:50:42;;;;;;;184.52;12.68;;;;;;;;;;4906442;28;20163;-67
2020/12/23 03:53:07;;;;;;;46.78;9.98;;;;;;;;;;4874498;28;20175;-67
2020/12/23 03:55:33;;;;;;;39.70;11.05;;;;;;;;;;4874491;28;20189;-67
2020/12/23 03:57:58;;;;;;;51.22;10.98;;;;;;;;;;4895273;28;20214;-67
2020/12/23 04:00:24;;;;;;;44.70;11.20;;;;;;;;;;4879008;28;20177;-66
2020/12/23 04:02:50;;;;;;;49.58;10.68;;;;;;;;;;4875059;28;20519;-67
2020/12/23 04:05:15;;;;;;;58.00;12.95;;;;;;;;;;4873713;28;20209;-67
2020/12/23 04:07:41;;;;;;;42.28;12.20;;;;;;;;;;4898246;28;20232;-67
2020/12/23 04:10:07;;;;;;;47.35;13.85;;;;;;;;;;4876064;28;20582;-67
2020/12/23 04:12:33;;;;;;;74.47;13.90;;;;;;;;;;4874841;28;20141;-66
2020/12/23 04:14:58;;;;;;;58.83;11.50;;;;;;;;;;4874955;28;20176;-67
2020/12/23 04:17:23;;;;;;;252.05;15.27;;;;;;;;;;4874666;28;20588;-67
2020/12/23 04:19:50;;;;;;;65.80;10.60;;;;;;;;;;4874042;28;20591;-67
2020/12/23 04:22:16;;;;;;;60.85;11.18;;;;;;;;;;4880874;28;20170;-67
2020/12/23 04:24:42;;;;;;;70.25;11.45;;;;;;;;;;4874259;28;20279;-67
2020/12/23 04:27:07;;;;;;;63.08;11.27;;;;;;;;;;4902699;28;20276;-67
2020/12/23 04:29:32;;;;;;;72.13;12.77;;;;;;;;;;4873194;28;20230;-68
2020/12/23 04:31:58;;;;;;;49.20;12.80;;;;;;;;;;4873670;28;20350;-67
2020/12/23 04:34:23;;;;;;;59.28;14.23;;;;;;;;;;4896049;28;20167;-67
2020/12/23 04:36:49;;;;;;;49.83;12.10;;;;;;;;;;4854330;28;20172;-67
2020/12/23 04:39:14;;;;;;;54.92;13.05;;;;;;;;;;4860680;28;20191;-67
2020/12/23 04:41:43;;;;;;;58.88;13.00;;;;;;;;;;4897513;28;20196;-67
2020/12/23 04:44:08;;;;;;;55.47;12.70;;;;;;;;;;4895553;28;20312;-66
2020/12/23 04:46:40;;;;;;;73.22;10.40;;;;;;;;;;4879549;28;20412;-67
2020/12/23 04:49:06;;;;;;;60.88;10.27;;;;;;;;;;4903913;28;20183;-67
2020/12/23 04:51:36;;;;;;;278.00;14.55;;;;;;;;;;4876466;28;20184;-66
2020/12/23 04:54:02;;;;;;;111.20;11.60;;;;;;;;;;4879839;28;20182;-67
2020/12/23 04:56:29;;;;;;;81.68;12.55;;;;;;;;;;4879563;28;20228;-66
2020/12/23 04:58:58;;;;;;;73.45;12.10;;;;;;;;;;4886682;28;20175;-67
2020/12/23 05:01:25;;;;;;;107.97;14.90;;;;;;;;;;4886684;28;20155;-66
2020/12/23 05:03:51;;;;;;;48.35;11.63;;;;;;;;;;4879751;28;20515;-67
2020/12/23 05:06:17;;;;;;;90.75;15.05;;;;;;;;;;4879688;28;20253;-67
2020/12/23 05:08:43;;;;;;;74.65;15.77;;;;;;;;;;4881619;28;20191;-67
2020/12/23 05:11:09;;;;;;;54.85;13.32;;;;;;;;;;4889036;28;20187;-67
2020/12/23 05:13:36;;;;;;;47.63;13.57;;;;;;;;;;4879713;28;20137;-67
2020/12/23 05:16:05;;;;;;;67.10;14.60;;;;;;;;;;4879218;28;20175;-67
2020/12/23 05:18:31;;;;;;;79.57;15.40;;;;;;;;;;4879215;28;20288;-67
2020/12/23 05:20:57;;;;;;;62.28;15.32;;;;;;;;;;4878802;28;20163;-67
2020/12/23 05:23:24;;;;;;;98.97;15.57;;;;;;;;;;4879114;28;20171;-67
2020/12/23 05:25:49;;;;;;;67.32;13.82;;;;;;;;;;4878902;28;20198;-67
2020/12/23 05:28:16;;;;;;;278.85;20.10;;;;;;;;;;4878484;28;20633;-66
2020/12/23 05:30:43;;;;;;;75.03;14.57;;;;;;;;;;4878489;28;20281;-67
2020/12/23 05:33:10;;;;;;;253.13;18.02;;;;;;;;;;4868127;28;20194;-66
2020/12/23 05:35:45;;;;;;;134.32;18.17;;;;;;;;;;4879133;28;20257;-67
2020/12/23 05:38:10;;;;;;;66.55;14.82;;;;;;;;;;4878791;28;20175;-67
2020/12/23 05:40:35;;;;;;;49.08;12.95;;;;;;;;;;4888183;28;20187;-67
2020/12/23 05:43:02;;;;;;;113.05;13.00;;;;;;;;;;4900377;28;20582;-67
2020/12/23 05:45:27;;;;;;;46.13;12.45;;;;;;;;;;4890874;28;20174;-66
2020/12/23 05:47:53;;;;;;;53.90;12.48;;;;;;;;;;4878731;28;20206;-66
2020/12/23 05:50:20;;;;;;;150.25;13.90;;;;;;;;;;4877561;28;20234;-67
2020/12/23 05:52:46;;;;;;;91.00;11.07;;;;;;;;;;4884901;28;20221;-67
2020/12/23 05:55:18;;;;;;;90.05;11.00;;;;;;;;;;4875719;28;20609;-68
2020/12/23 05:57:44;;;;;;;34.83;10.07;;;;;;;;;;4876035;28;20597;-67
2020/12/23 06:00:12;;;;;;;37.25;9.25;;;;;;;;;;4913498;28;20263;-67
2020/12/23 06:02:50;;;;;;;50.20;9.60;;;;;;;;;;4877297;28;20313;-67
2020/12/23 06:05:18;;;;;;;155.43;12.57;;;;;;;;;;4875170;28;20212;-67
2020/12/23 06:07:48;;;;;;;51.45;11.57;;;;;;;;;;4875591;28;20196;-67
2020/12/23 06:10:14;;;;;;;44.40;10.43;;;;;;;;;;4876211;28;20281;-67
2020/12/23 06:12:46;;;;;;;41.65;10.43;;;;;;;;;;4908517;28;20360;-67
2020/12/23 06:15:16;;;;;;;41.00;10.02;;;;;;;;;;4875769;28;20222;-67
2020/12/23 06:17:47;;;;;;;122.47;11.90;;;;;;;;;;4876429;28;20480;-67
2020/12/23 06:20:17;;;;;;;42.83;10.82;;;;;;;;;;4885247;28;20156;-66
2020/12/23 06:22:46;;;;;;;57.50;9.73;;;;;;;;;;4883086;28;20207;-66
2020/12/23 06:25:12;;;;;;;86.75;11.02;;;;;;;;;;4907734;28;20183;-67
2020/12/23 06:27:40;;;;;;;102.97;12.02;;;;;;;;;;4875105;28;20152;-66
2020/12/23 06:30:06;;;;;;;48.90;10.30;;;;;;;;;;4874517;28;20202;-67
2020/12/23 06:32:31;;;;;;;102.70;11.20;;;;;;;;;;4879357;28;20536;-67
2020/12/23 06:34:57;;;;;;;169.63;12.55;;;;;;;;;;4876708;28;20353;-67
2020/12/23 06:37:26;;;;;;;64.85;10.85;;;;;;;;;;4874410;28;20353;-67
2020/12/23 06:39:52;;;;;;;63.13;10.15;;;;;;;;;;4906882;28;20211;-67
2020/12/23 06:42:22;;;;;;;64.97;10.15;;;;;;;;;;4889674;28;20146;-69
2020/12/23 06:44:51;;;;;;;33.60;9.85;;;;;;;;;;4895494;28;20512;-67
2020/12/23 06:47:20;;;;;;;37.30;8.95;;;;;;;;;;4874783;28;20193;-67
2020/12/23 06:49:48;;;;;;;23.55;8.90;;;;;;;;;;4874641;28;20345;-67
2020/12/23 06:52:22;;;;;;;25.35;8.38;;;;;;;;;;4874683;28;20577;-67
2020/12/23 06:54:52;;;;;;;34.75;9.02;;;;;;;;;;4874180;28;20198;-67
2020/12/23 06:57:39;;;;;;;62.80;11.75;;;;;;;;;;4876160;28;20539;-67
2020/12/23 07:00:17;;;;;;;54.10;9.77;;;;;;;;;;4905057;28;20366;-66
2020/12/23 07:02:44;;;;;;;23.42;8.38;;;;;;;;;;4891537;28;20274;-67
2020/12/23 07:05:13;;;;;;;33.85;9.07;;;;;;;;;;4862115;28;20167;-67
2020/12/23 07:07:40;;;;;;;30.02;8.75;;;;;;;;;;4874425;28;20191;-66
2020/12/23 07:10:08;;;;;;;27.65;9.00;;;;;;;;;;4874713;28;20156;-67
2020/12/23 07:12:35;;;;;;;19.40;7.95;;;;;;;;;;4875986;28;20269;-67
2020/12/23 07:15:18;;;;;;;70.72;9.50;;;;;;;;;;4874090;28;20207;-67
2020/12/23 07:17:44;;;;;;;32.55;8.38;;;;;;;;;;4899267;28;20282;-67
2020/12/23 07:20:10;;;;;;;24.17;8.40;;;;;;;;;;4874652;28;20615;-68
2020/12/23 07:22:37;;;;;;;24.95;8.80;;;;;;;;;;4873847;28;20552;-67
2020/12/23 07:25:03;;;;;;;34.85;8.80;;;;;;;;;;4888797;28;20179;-67
2020/12/23 07:27:28;;;;;;;27.50;8.77;;;;;;;;;;4859352;28;20274;-67
2020/12/23 07:29:56;;;;;;;18.50;7.55;;;;;;;;;;4873512;28;20258;-67
2020/12/23 07:32:23;;;;;;;22.65;7.72;;;;;;;;;;4873960;28;20301;-67
2020/12/23 07:34:49;;;;;;;41.72;9.48;;;;;;;;;;4881660;28;20194;-67
2020/12/23 07:37:15;;;;;;;31.60;9.50;;;;;;;;;;4874065;28;20179;-67
2020/12/23 07:39:40;;;;;;;30.17;8.60;;;;;;;;;;4873579;28;20198;-67
2020/12/23 07:42:06;;;;;;;31.45;10.30;;;;;;;;;;4887424;28;20152;-67
2020/12/23 07:44:32;;;;;;;37.55;8.93;;;;;;;;;;4893019;28;20227;-67
2020/12/23 07:47:04;;;;;;;34.58;9.15;;;;;;;;;;4881333;28;20596;-67
2020/12/23 07:49:29;;;;;;;21.85;8.70;;;;;;;;;;4873635;28;20156;-67
2020/12/23 07:51:56;;;;;;;36.13;8.85;;;;;;;;;;4875301;28;20487;-67
2020/12/23 07:54:22;;;;;;;31.42;9.20;;;;;;;;;;4906077;28;20258;-67
2020/12/23 07:56:48;;;;;;;23.75;7.78;;;;;;;;;;4874498;28;20206;-67
2020/12/23 07:59:22;;;;;;;29.15;7.97;;;;;;;;;;4873815;28;20555;-67
2020/12/23 08:01:48;;;;;;;20.50;7.37;;;;;;;;;;4871947;28;20207;-67
2020/12/23 08:04:14;;;;;;;22.90;7.00;;;;;;;;;;4875980;28;20409;-67
2020/12/23 08:06:40;;;;;;;17.33;6.50;;;;;;;;;;4872979;28;20607;-67
2020/12/23 08:09:11;;;;;;;20.77;6.55;;;;;;;;;;4875172;28;20278;-67
2020/12/23 08:11:37;;;;;;;38.47;7.80;;;;;;;;;;4873343;28;20206;-67
2020/12/23 08:14:03;;;;;;;100.88;8.73;;;;;;;;;;4873170;28;20194;-67
2020/12/23 08:16:29;;;;;;;23.95;7.00;;;;;;;;;;4872316;28;20204;-67
2020/12/23 08:18:54;;;;;;;25.45;8.55;;;;;;;;;;4879214;28;20278;-67
2020/12/23 08:21:20;;;;;;;31.27;8.15;;;;;;;;;;4890981;28;20182;-67
2020/12/23 08:23:52;;;;;;;38.78;8.57;;;;;;;;;;4882570;28;20268;-67
2020/12/23 08:26:19;;;;;;;44.92;12.43;;;;;;;;;;4880570;28;20281;-67
2020/12/23 08:28:45;;;;;;;36.80;11.35;;;;;;;;;;4888043;28;20276;-67
2020/12/23 08:31:12;;;;;;;23.10;8.07;;;;;;;;;;4880071;28;20144;-67
2020/12/23 08:33:38;;;;;;;19.23;6.82;;;;;;;;;;4886339;28;20284;-67
2020/12/23 08:36:04;;;;;;;20.30;7.30;;;;;;;;;;4886835;28;20538;-67
2020/12/23 08:38:30;;;;;;;89.10;8.77;;;;;;;;;;4882685;28;20580;-67
2020/12/23 08:40:57;;;;;;;22.63;10.32;;;;;;;;;;4878719;28;20214;-67
2020/12/23 08:43:26;;;;;;;23.23;8.70;;;;;;;;;;4882698;28;20647;-67
2020/12/23 08:45:58;;;;;;;29.65;15.57;;;;;;;;;;4880759;28;20212;-67
2020/12/23 08:48:24;;;;;;;27.83;12.15;;;;;;;;;;4993440;28;20474;-69
2020/12/23 08:50:53;;;;;;;17.20;7.20;;;;;;;;;;5042593;28;20032;-71
2020/12/23 08:53:27;;;;;;;17.65;6.65;;;;;;;;;;5041224;28;20044;-69
2020/12/23 08:55:53;;;;;;;12.85;5.88;;;;;;;;;;5040525;28;20033;-71
2020/12/23 08:58:20;;;;;;;14.75;6.25;;;;;;;;;;5043124;28;20013;-69
2020/12/23 09:00:55;;;;;;;14.30;5.47;;;;;;;;;;5032299;28;20148;-70
2020/12/23 09:03:22;;;;;;;11.10;5.57;;;;;;;;;;5044051;28;20554;-69
2020/12/23 09:05:47;;;;;;;13.90;6.10;;;;;;;;;;5028411;28;20029;-70
2020/12/23 09:08:12;;;;;;;15.02;6.15;;;;;;;;;;5039033;28;20048;-74
2020/12/23 09:10:38;;;;;;;14.98;5.78;;;;;;;;;;5040162;28;20017;-72
2020/12/23 09:13:13;;;;;;;17.88;6.53;;;;;;;;;;5043331;28;20033;-70
2020/12/23 09:15:40;;;;;;;18.60;6.32;;;;;;;;;;5037583;28;20108;-80
2020/12/23 09:18:09;;;;;;;11.25;4.60;;;;;;;;;;5029183;28;20029;-72
2020/12/23 09:20:35;;;;;;;12.88;4.53;;;;;;;;;;5041128;28;20029;-70
2020/12/23 09:23:01;;;;;;;14.73;6.22;;;;;;;;;;5038715;28;20059;-70
2020/12/23 09:25:27;;;;;;;17.02;5.95;;;;;;;;;;5040905;28;20037;-72
2020/12/23 09:28:08;;;;;;;22.33;7.75;;;;;;;;;;5040267;28;20045;-69
2020/12/23 09:30:41;;;;;;;19.08;9.20;;;;;;;;;;5042851;28;20033;-70
2020/12/23 09:33:08;;;;;;;13.05;6.70;;;;;;;;;;5040288;28;20049;-70
2020/12/23 09:35:33;;;;;;;11.80;6.75;;;;;;;;;;5043157;28;20036;-70
2020/12/23 09:38:07;;;;;;;16.75;6.70;;;;;;;;;;5023048;28;20025;-73
2020/12/23 09:40:33;;;;;;;17.90;6.47;;;;;;;;;;5039301;28;20044;-70
2020/12/23 09:42:59;;;;;;;24.23;7.63;;;;;;;;;;5034921;28;20037;-72
2020/12/23 09:45:24;;;;;;;20.85;6.18;;;;;;;;;;5038342;28;20152;-72
2020/12/23 09:47:49;;;;;;;13.60;4.97;;;;;;;;;;5032157;28;20086;-72
2020/12/23 09:50:15;;;;;;;13.10;5.05;;;;;;;;;;5031915;28;20033;-73
2020/12/23 09:52:40;;;;;;;17.83;5.32;;;;;;;;;;5039470;28;20041;-74
2020/12/23 09:55:07;;;;;;;13.65;4.40;;;;;;;;;;5031975;28;20022;-70
2020/12/23 09:57:32;;;;;;;8.32;4.00;;;;;;;;;;5044899;28;20073;-71
2020/12/23 09:59:57;;;;;;;7.72;3.47;;;;;;;;;;5034211;28;20418;-74
2020/12/23 10:02:23;;;;;;;12.63;4.43;;;;;;;;;;5038979;28;20023;-79
2020/12/23 10:04:48;;;;;;;11.35;5.45;;;;;;;;;;5029122;28;20064;-72
2020/12/23 10:07:13;;;;;;;12.10;6.10;;;;;;;;;;5033919;28;20102;-70
2020/12/23 10:09:39;;;;;;;11.95;4.80;;;;;;;;;;5027756;28;20029;-74
2020/12/23 10:12:04;;;;;;;13.50;3.95;;;;;;;;;;5026833;28;20390;-71
2020/12/23 10:14:29;;;;;;;24.08;5.53;;;;;;;;;;5032017;28;20067;-80
2020/12/23 10:16:55;;;;;;;174.88;11.57;;;;;;;;;;5037177;28;20501;-72
2020/12/23 10:19:20;;;;;;;15.15;5.18;;;;;;;;;;5038117;28;20495;-71
2020/12/23 10:21:45;;;;;;;16.88;5.88;;;;;;;;;;5037013;28;20128;-75
2020/12/23 10:24:10;;;;;;;15.30;5.22;;;;;;;;;;5037305;28;20481;-71
2020/12/23 10:26:36;;;;;;;11.55;4.60;;;;;;;;;;5036821;28;20102;-70
2020/12/23 10:29:01;;;;;;;12.55;4.82;;;;;;;;;;5035676;28;20048;-72
2020/12/23 10:31:26;;;;;;;27.35;10.02;;;;;;;;;;5041025;28;20021;-70
2020/12/23 10:33:52;;;;;;;27.23;10.07;;;;;;;;;;5038911;28;20049;-70
2020/12/23 10:36:17;;;;;;;13.68;5.72;;;;;;;;;;5032401;28;20041;-70
2020/12/23 10:38:42;;;;;;;12.80;3.30;;;;;;;;;;5029200;28;20025;-71
2020/12/23 10:41:08;;;;;;;8.60;3.00;;;;;;;;;;5035562;28;20037;-70
2020/12/23 10:43:33;;;;;;;6.43;2.60;;;;;;;;;;5051656;28;20039;-74
2020/12/23 10:45:59;;;;;;;7.32;2.10;;;;;;;;;;5032812;28;20022;-71
2020/12/23 10:48:24;;;;;;;33.88;4.55;;;;;;;;;;5030949;28;20095;-70
2020/12/23 10:50:49;;;;;;;38.10;5.95;;;;;;;;;;5027823;28;20390;-69
2020/12/23 10:53:15;;;;;;;245.60;11.48;;;;;;;;;;5019185;28;20025;-70
2020/12/23 10:55:40;;;;;;;332.42;14.27;;;;;;;;;;5032152;28;20025;-81
2020/12/23 10:58:05;;;;;;;84.88;5.47;;;;;;;;;;5028592;28;20040;-69
2020/12/23 11:00:31;;;;;;;39.28;5.13;;;;;;;;;;5032107;28;20116;-71
2020/12/23 11:02:56;;;;;;;21.80;5.50;;;;;;;;;;5034672;28;20033;-69
2020/12/23 11:05:22;;;;;;;20.05;4.32;;;;;;;;;;5034255;28;20470;-70
2020/12/23 11:07:47;;;;;;;11.55;2.35;;;;;;;;;;5037147;28;20422;-70
2020/12/23 11:10:13;;;;;;;11.27;2.97;;;;;;;;;;5037703;28;20648;-77
2020/12/23 11:12:39;;;;;;;10.40;2.15;;;;;;;;;;5041347;28;20041;-70
2020/12/23 11:15:04;;;;;;;13.35;2.40;;;;;;;;;;5033538;28;20028;-72
2020/12/23 11:17:29;;;;;;;10.95;1.73;;;;;;;;;;5040162;28;20083;-71
2020/12/23 11:19:54;;;;;;;13.23;2.55;;;;;;;;;;5036874;28;20044;-72
2020/12/23 11:22:20;;;;;;;10.38;2.33;;;;;;;;;;5037607;28;20051;-71
2020/12/23 11:24:45;;;;;;;46.20;3.00;;;;;;;;;;5036520;28;20055;-73
2020/12/23 11:27:11;;;;;;;11.13;2.40;;;;;;;;;;5037926;28;20065;-72
2020/12/23 11:29:36;;;;;;;202.88;8.15;;;;;;;;;;5038876;28;20052;-71
2020/12/23 11:32:01;;;;;;;12.55;3.85;;;;;;;;;;5035694;28;20069;-77
2020/12/23 11:34:27;;;;;;;18.95;6.80;;;;;;;;;;5029711;28;20040;-74
2020/12/23 11:36:55;;;;;;;16.15;6.25;;;;;;;;;;5030838;28;20018;-71
2020/12/23 11:39:21;;;;;;;15.32;3.63;;;;;;;;;;5023417;28;20033;-81
2020/12/23 11:41:47;;;;;;;10.90;2.92;;;;;;;;;;5029026;28;20649;-71
2020/12/23 11:44:12;;;;;;;9.93;3.25;;;;;;;;;;5028909;28;20021;-71
2020/12/23 11:46:38;;;;;;;5.47;2.20;;;;;;;;;;5028848;28;20032;-81
2020/12/23 11:49:04;;;;;;;5.93;1.35;;;;;;;;;;5039351;28;20508;-72
2020/12/23 11:51:29;;;;;;;8.75;1.77;;;;;;;;;;5025462;28;20021;-69
2020/12/23 11:53:56;;;;;;;16.10;3.40;;;;;;;;;;5025969;28;20044;-74
2020/12/23 11:56:22;;;;;;;20.83;4.97;;;;;;;;;;5043147;28;20061;-71
2020/12/23 11:58:51;;;;;;;22.77;5.88;;;;;;;;;;5030761;28;20126;-70
2020/12/23 12:01:20;;;;;;;17.77;4.35;;;;;;;;;;5037550;28;20089;-73
2020/12/23 12:03:45;;;;;;;14.70;3.72;;;;;;;;;;5030513;28;20761;-71
2020/12/23 12:06:10;;;;;;;14.63;3.83;;;;;;;;;;5028654;28;20025;-73
2020/12/23 12:08:36;;;;;;;14.63;3.00;;;;;;;;;;5025221;28;20045;-72
2020/12/23 12:11:01;;;;;;;13.48;3.05;;;;;;;;;;5031574;28;20039;-71
2020/12/23 12:13:26;;;;;;;15.13;3.35;;;;;;;;;;5035848;28;20028;-71
2020/12/23 12:15:52;;;;;;;13.25;3.40;;;;;;;;;;5037713;28;20131;-73
2020/12/23 12:18:17;;;;;;;16.45;3.00;;;;;;;;;;5035423;28;20537;-74
2020/12/23 12:20:42;;;;;;;42.40;3.05;;;;;;;;;;5042702;28;20013;-71
2020/12/23 12:23:08;;;;;;;53.75;4.15;;;;;;;;;;5026112;28;20036;-72
2020/12/23 12:25:36;;;;;;;115.22;5.65;;;;;;;;;;5029365;28;20041;-80
2020/12/23 12:28:02;;;;;;;356.45;11.43;;;;;;;;;;5038251;28;20048;-70
2020/12/23 12:30:28;;;;;;;9.20;3.03;;;;;;;;;;5026508;28;20116;-72
2020/12/23 12:32:53;;;;;;;9.02;2.90;;;;;;;;;;5031160;28;20132;-71
2020/12/23 12:35:19;;;;;;;15.75;4.50;;;;;;;;;;5032207;28;20189;-73
2020/12/23 12:37:44;;;;;;;13.55;3.45;;;;;;;;;;5029527;28;20052;-71
2020/12/23 12:40:09;;;;;;;281.40;10.60;;;;;;;;;;5038588;28;20087;-80
2020/12/23 12:42:34;;;;;;;389.45;12.10;;;;;;;;;;5042226;28;20459;-71
2020/12/23 12:45:00;;;;;;;15.82;6.20;;;;;;;;;;5035279;28;20063;-75
2020/12/23 12:47:25;;;;;;;12.23;4.72;;;;;;;;;;5043202;28;20041;-79
2020/12/23 12:49:50;;;;;;;17.90;4.90;;;;;;;;;;5036892;28;20542;-70
2020/12/23 12:52:16;;;;;;;15.25;4.32;;;;;;;;;;5037089;28;20037;-71
2020/12/23 12:54:41;;;;;;;7.75;3.33;;;;;;;;;;5035883;28;20037;-72
2020/12/23 12:57:06;;;;;;;24.48;8.77;;;;;;;;;;5036111;28;20021;-71
2020/12/23 12:59:34;;;;;;;30.85;7.45;;;;;;;;;;5035326;28;20485;-76
2020/12/23 13:01:59;;;;;;;20.95;9.40;;;;;;;;;;5029342;28;20122;-72
2020/12/23 13:04:25;;;;;;;18.08;7.68;;;;;;;;;;5030597;28;20108;-73
2020/12/23 13:06:50;;;;;;;16.00;4.85;;;;;;;;;;5044925;28;20040;-71
2020/12/23 13:09:15;;;;;;;25.38;3.50;;;;;;;;;;5038370;28;20132;-78
2020/12/23 13:11:40;;;;;;;17.33;3.83;;;;;;;;;;5036936;28;20041;-71
2020/12/23 13:14:06;;;;;;;12.50;3.30;;;;;;;;;;5031383;28;20038;-73
2020/12/23 13:16:32;;;;;;;20.75;2.92;;;;;;;;;;5045179;28;20506;-71
2020/12/23 13:18:57;;;;;;;15.60;3.00;;;;;;;;;;5028833;28;20021;-74
2020/12/23 13:21:23;;;;;;;23.58;3.45;;;;;;;;;;5028367;28;20163;-72
2020/12/23 13:23:48;;;;;;;23.20;4.70;;;;;;;;;;5035832;28;20040;-71
2020/12/23 13:26:14;;;;;;;13.57;2.80;;;;;;;;;;5025838;28;20382;-72
2020/12/23 13:28:40;;;;;;;15.57;3.13;;;;;;;;;;5025825;28;20123;-71
2020/12/23 13:31:06;;;;;;;25.35;3.65;;;;;;;;;;5041911;28;20131;-72
2020/12/23 13:33:32;;;;;;;17.00;2.53;;;;;;;;;;5028500;28;20081;-72
2020/12/23 13:35:58;;;;;;;17.08;2.80;;;;;;;;;;5032176;28;20029;-70
2020/12/23 13:38:23;;;;;;;53.92;4.30;;;;;;;;;;5033227;28;20037;-71
2020/12/23 13:40:48;;;;;;;29.88;2.45;;;;;;;;;;5035366;28;20092;-71
2020/12/23 13:43:14;;;;;;;21.67;2.72;;;;;;;;;;5044211;28;20049;-70
2020/12/23 13:45:39;;;;;;;8.38;2.08;;;;;;;;;;5032538;28;20038;-70
2020/12/23 13:48:05;;;;;;;9.23;2.00;;;;;;;;;;5032383;28;20076;-71
2020/12/23 13:50:36;;;;;;;19.65;2.17;;;;;;;;;;5029566;28;20610;-71
2020/12/23 13:53:01;;;;;;;5.55;1.30;;;;;;;;;;5033490;28;20045;-71
2020/12/23 13:55:27;;;;;;;4.07;1.67;;;;;;;;;;5033935;28;20029;-74
2020/12/23 13:57:52;;;;;;;6.97;1.20;;;;;;;;;;5033738;28;20072;-70
2020/12/23 14:00:17;;;;;;;18.02;2.75;;;;;;;;;;5034042;28;20037;-71
2020/12/23 14:02:42;;;;;;;11.27;1.45;;;;;;;;;;5034433;28;20066;-77
2020/12/23 14:05:08;;;;;;;36.05;1.90;;;;;;;;;;5035052;28;20052;-71
2020/12/23 14:07:33;;;;;;;22.80;1.60;;;;;;;;;;5035802;28;20037;-70
2020/12/23 14:09:58;;;;;;;29.35;1.45;;;;;;;;;;5035991;28;20029;-70
2020/12/23 14:12:24;;;;;;;24.80;1.40;;;;;;;;;;5040695;28;20033;-70
2020/12/23 14:14:49;;;;;;;25.48;1.67;;;;;;;;;;5041885;28;20033;-72
2020/12/23 14:17:14;;;;;;;25.60;2.30;;;;;;;;;;5036171;28;20477;-71
2020/12/23 14:19:40;;;;;;;36.67;2.15;;;;;;;;;;5037775;28;20029;-71